createdAt,value
2023-01-17T00:01:48.367Z,13.73
2023-01-17T00:04:34.127Z,11.63
2023-01-17T00:07:20.217Z,13.20
2023-01-17T00:09:53.064Z,14.13
2023-01-17T00:12:21.421Z,13.25
2023-01-17T00:14:49.466Z,12.98
2023-01-17T00:17:16.768Z,11.10
2023-01-17T00:20:02.538Z,9.50
2023-01-17T00:22:49.954Z,10.43
2023-01-17T00:25:47.714Z,9.57
2023-01-17T00:30:42.063Z,7.88
2023-01-17T00:33:09.391Z,8.85
2023-01-17T00:35:36.354Z,9.40
2023-01-17T00:38:14.829Z,9.63
2023-01-17T00:40:43.556Z,8.90
2023-01-17T00:43:31.384Z,10.88
2023-01-17T00:46:17.351Z,9.75
2023-01-17T00:49:04.275Z,10.43
2023-01-17T00:51:51.640Z,9.40
2023-01-17T00:54:38.458Z,9.93
2023-01-17T00:57:25.351Z,8.52
2023-01-17T01:00:11.213Z,10.32
2023-01-17T01:02:57.596Z,9.88
2023-01-17T01:05:44.043Z,9.68
2023-01-17T01:08:39.380Z,9.35
2023-01-17T01:11:28.035Z,11.63
2023-01-17T01:14:14.024Z,10.20
2023-01-17T01:17:00.317Z,9.98
2023-01-17T01:19:45.912Z,9.85
2023-01-17T01:22:31.929Z,9.18
2023-01-17T01:25:18.301Z,10.20
2023-01-17T01:28:04.367Z,10.43
2023-01-17T01:30:50.681Z,11.02
2023-01-17T01:33:21.159Z,9.70
2023-01-17T01:35:49.520Z,9.57
2023-01-17T01:38:18.387Z,8.98
2023-01-17T01:40:48.360Z,11.27
2023-01-17T01:43:17.865Z,10.15
2023-01-17T01:45:50.010Z,8.27
2023-01-17T01:48:32.701Z,10.48
2023-01-17T01:51:02.975Z,9.30
2023-01-17T01:53:33.338Z,12.23
2023-01-17T01:56:01.551Z,10.25
2023-01-17T01:58:34.099Z,9.18
2023-01-17T02:01:01.290Z,9.07
2023-01-17T02:03:31.586Z,9.93
2023-01-17T02:06:24.883Z,9.25
2023-01-17T02:08:52.649Z,10.15
2023-01-17T02:11:20.011Z,9.25
2023-01-17T02:13:47.308Z,8.43
2023-01-17T02:16:44.344Z,10.00
2023-01-17T02:19:11.730Z,7.85
2023-01-17T02:22:02.683Z,10.75
2023-01-17T02:25:15.007Z,9.02
2023-01-17T02:27:45.466Z,8.75
2023-01-17T02:30:31.166Z,8.68
2023-01-17T02:33:03.853Z,8.50
2023-01-17T02:35:58.526Z,9.25
2023-01-17T02:38:32.518Z,9.23
2023-01-17T02:41:21.609Z,7.70
2023-01-17T02:43:51.469Z,8.60
2023-01-17T02:46:18.856Z,9.35
2023-01-17T02:48:46.996Z,9.02
2023-01-17T02:51:40.170Z,9.43
2023-01-17T02:54:39.381Z,9.20
2023-01-17T02:57:22.913Z,8.27
2023-01-17T03:00:08.801Z,8.43
2023-01-17T03:03:01.913Z,9.75
2023-01-17T03:05:52.996Z,9.13
2023-01-17T03:08:21.124Z,9.70
2023-01-17T03:10:48.303Z,10.68
2023-01-17T03:13:15.683Z,9.93
2023-01-17T03:15:43.116Z,9.45
2023-01-17T03:18:15.537Z,9.48
2023-01-17T03:20:42.980Z,10.25
2023-01-17T03:23:10.402Z,12.30
2023-01-17T03:25:37.587Z,11.15
2023-01-17T03:28:05.297Z,10.20
2023-01-17T03:30:32.510Z,13.57
2023-01-17T03:32:59.844Z,12.55
2023-01-17T03:35:28.335Z,12.43
2023-01-17T03:37:56.008Z,11.88
2023-01-17T03:40:23.219Z,12.30
2023-01-17T03:42:50.866Z,14.95
2023-01-17T03:45:18.183Z,12.27
2023-01-17T03:47:45.733Z,14.90
2023-01-17T03:50:13.562Z,16.92
2023-01-17T03:52:40.900Z,14.43
2023-01-17T03:55:08.493Z,14.93
2023-01-17T03:57:35.958Z,14.70
2023-01-17T04:00:03.607Z,15.02
2023-01-17T04:02:34.805Z,14.75
2023-01-17T04:05:02.207Z,15.02
2023-01-17T04:07:29.551Z,17.38
2023-01-17T04:09:56.964Z,17.05
2023-01-17T04:12:24.367Z,19.85
2023-01-17T04:14:51.457Z,17.88
2023-01-17T04:17:19.923Z,16.65
2023-01-17T04:19:47.450Z,20.55
2023-01-17T04:22:14.885Z,19.83
2023-01-17T04:24:41.949Z,18.23
2023-01-17T04:27:14.247Z,21.33
2023-01-17T04:29:41.430Z,18.63
2023-01-17T04:32:08.868Z,19.63
2023-01-17T04:34:36.006Z,19.48
2023-01-17T04:37:03.537Z,20.27
2023-01-17T04:39:30.615Z,19.98
2023-01-17T04:41:58.164Z,18.90
2023-01-17T04:44:25.249Z,20.48
2023-01-17T04:46:52.549Z,23.88
2023-01-17T04:49:19.596Z,22.38
2023-01-17T04:51:46.981Z,25.73
2023-01-17T04:54:14.088Z,24.13
2023-01-17T04:56:41.447Z,26.35
2023-01-17T04:59:08.491Z,23.45
2023-01-17T05:01:36.056Z,24.17
2023-01-17T05:04:03.235Z,23.30
2023-01-17T05:06:30.884Z,24.92
2023-01-17T05:08:58.019Z,25.30
2023-01-17T05:11:25.715Z,25.90
2023-01-17T05:13:52.753Z,27.95
2023-01-17T05:16:20.244Z,26.10
2023-01-17T05:18:50.467Z,26.98
2023-01-17T05:21:17.877Z,24.10
2023-01-17T05:23:45.006Z,26.05
2023-01-17T05:26:12.436Z,26.25
2023-01-17T05:28:39.584Z,24.15
2023-01-17T05:31:07.079Z,28.20
2023-01-17T05:33:34.216Z,29.10
2023-01-17T05:36:01.545Z,26.30
2023-01-17T05:38:28.563Z,27.00
2023-01-17T05:40:58.690Z,26.85
2023-01-17T05:43:25.777Z,28.60
2023-01-17T05:45:53.152Z,29.08
2023-01-17T05:48:20.849Z,30.48
2023-01-17T05:50:48.395Z,26.23
2023-01-17T05:53:16.825Z,25.63
2023-01-17T05:55:44.722Z,29.50
2023-01-17T05:58:18.122Z,27.25
2023-01-17T06:00:46.227Z,27.50
2023-01-17T06:03:13.749Z,30.13
2023-01-17T06:05:41.496Z,27.98
2023-01-17T06:08:09.012Z,26.63
2023-01-17T06:10:36.496Z,28.92
2023-01-17T06:13:08.944Z,32.30
2023-01-17T06:15:37.562Z,28.80
2023-01-17T06:18:12.332Z,29.40
2023-01-17T06:20:40.505Z,29.92
2023-01-17T06:23:11.314Z,29.63
2023-01-17T06:25:45.333Z,27.25
2023-01-17T06:28:14.522Z,29.15
2023-01-17T06:30:43.941Z,28.77
2023-01-17T06:33:11.536Z,29.75
2023-01-17T06:35:40.941Z,28.40
2023-01-17T06:38:10.011Z,27.67
2023-01-17T06:40:37.448Z,27.23
2023-01-17T06:43:05.319Z,29.73
2023-01-17T06:45:35.589Z,29.80
2023-01-17T06:48:05.283Z,27.05
2023-01-17T06:50:33.907Z,26.17
2023-01-17T06:53:03.327Z,25.83
2023-01-17T06:55:33.531Z,29.48
2023-01-17T06:58:02.863Z,27.48
2023-01-17T07:00:31.845Z,27.05
2023-01-17T07:02:58.998Z,26.63
2023-01-17T07:05:28.429Z,28.17
2023-01-17T07:07:55.895Z,25.45
2023-01-17T07:10:23.650Z,27.13
2023-01-17T07:12:51.495Z,27.35
2023-01-17T07:15:19.577Z,27.13
2023-01-17T07:17:46.744Z,22.90
2023-01-17T07:20:14.114Z,26.23
2023-01-17T07:22:45.363Z,25.63
2023-01-17T07:25:13.114Z,25.35
2023-01-17T07:27:40.139Z,27.35
2023-01-17T07:30:08.669Z,23.52
2023-01-17T07:32:35.739Z,25.27
2023-01-17T07:35:03.292Z,23.88
2023-01-17T07:37:30.397Z,23.27
2023-01-17T07:39:57.784Z,22.00
2023-01-17T07:42:26.773Z,24.42
2023-01-17T07:44:54.278Z,27.88
2023-01-17T07:47:21.566Z,23.10
2023-01-17T07:49:48.899Z,22.48
2023-01-17T07:52:18.088Z,24.92
2023-01-17T07:54:45.716Z,23.88
2023-01-17T07:57:16.074Z,25.75
2023-01-17T07:59:43.463Z,20.75
2023-01-17T08:02:18.875Z,25.63
2023-01-17T08:04:46.895Z,22.85
2023-01-17T08:07:14.417Z,23.17
2023-01-17T08:09:49.626Z,21.95
2023-01-17T08:12:17.317Z,23.52
2023-01-17T08:14:45.004Z,20.38
2023-01-17T08:17:14.574Z,24.42
2023-01-17T08:19:41.983Z,24.52
2023-01-17T08:22:09.331Z,24.38
2023-01-17T08:24:37.566Z,24.90
2023-01-17T08:27:04.709Z,25.30
2023-01-17T08:29:36.072Z,21.60
2023-01-17T08:32:03.908Z,23.42
2023-01-17T08:34:33.727Z,22.15
2023-01-17T08:37:00.926Z,17.70
2023-01-17T08:39:28.775Z,19.67
2023-01-17T08:41:57.478Z,18.80
2023-01-17T08:44:25.099Z,19.08
2023-01-17T08:46:52.234Z,21.23
2023-01-17T08:49:19.756Z,29.40
2023-01-17T08:51:46.902Z,19.13
2023-01-17T08:54:15.432Z,22.98
2023-01-17T08:56:46.969Z,18.73
2023-01-17T08:59:14.546Z,19.25
2023-01-17T09:01:42.149Z,20.02
2023-01-17T09:04:10.493Z,17.13
2023-01-17T09:06:39.662Z,20.10
2023-01-17T09:09:08.532Z,15.70
2023-01-17T09:11:35.809Z,19.27
2023-01-17T09:14:03.764Z,17.25
2023-01-17T09:16:32.265Z,20.20
2023-01-17T09:18:59.802Z,17.42
2023-01-17T09:21:27.172Z,15.77
2023-01-17T09:23:55.573Z,16.50
2023-01-17T09:26:26.248Z,16.52
2023-01-17T09:28:54.297Z,15.23
2023-01-17T09:31:23.123Z,14.32
2023-01-17T09:33:51.743Z,13.02
2023-01-17T09:36:20.037Z,14.98
2023-01-17T09:38:47.867Z,14.70
2023-01-17T09:41:30.288Z,15.23
2023-01-17T09:44:24.623Z,16.00
2023-01-17T09:46:59.558Z,13.63
2023-01-17T09:49:38.679Z,15.02
2023-01-17T09:52:08.624Z,16.70
2023-01-17T09:54:40.165Z,17.42
2023-01-17T09:57:46.131Z,16.50
2023-01-17T10:00:41.030Z,14.23
2023-01-17T10:03:41.239Z,14.15
2023-01-17T10:06:41.933Z,15.18
2023-01-17T10:09:38.621Z,15.57
2023-01-17T10:12:43.001Z,16.38
2023-01-17T10:15:39.314Z,14.88
2023-01-17T10:18:44.819Z,12.50
2023-01-17T10:21:53.620Z,13.13
2023-01-17T10:24:31.806Z,13.55
2023-01-17T10:27:01.594Z,15.48
2023-01-17T10:29:34.704Z,15.70
2023-01-17T10:32:03.071Z,14.15
2023-01-17T10:34:50.371Z,15.13
2023-01-17T10:37:30.277Z,13.27
2023-01-17T10:40:16.465Z,12.82
2023-01-17T10:43:06.651Z,14.57
2023-01-17T10:45:43.531Z,12.88
2023-01-17T10:48:35.344Z,17.63
2023-01-17T10:51:30.467Z,17.52
2023-01-17T10:54:03.875Z,13.93
2023-01-17T10:56:32.730Z,15.27
2023-01-17T10:59:30.632Z,12.95
2023-01-17T11:02:07.383Z,11.68
2023-01-17T11:04:37.917Z,14.25
2023-01-17T11:07:14.092Z,13.90
2023-01-17T11:09:52.771Z,14.98
2023-01-17T11:12:26.821Z,14.68
2023-01-17T11:15:02.887Z,15.52
2023-01-17T11:17:31.667Z,14.02
2023-01-17T11:20:23.594Z,16.05
2023-01-17T11:23:22.673Z,16.65
2023-01-17T11:26:05.381Z,14.45
2023-01-17T11:28:34.916Z,14.32
2023-01-17T11:31:07.543Z,12.75
2023-01-17T11:33:35.096Z,14.65
2023-01-17T11:36:02.548Z,14.55
2023-01-17T11:38:30.065Z,17.38
2023-01-17T11:41:17.073Z,13.75
2023-01-17T11:46:26.425Z,13.32
2023-01-17T11:48:59.840Z,14.38
2023-01-17T11:51:33.191Z,14.55
2023-01-17T11:54:28.586Z,15.13
2023-01-17T11:57:00.683Z,14.13
2023-01-17T11:59:38.099Z,15.18
2023-01-17T12:02:32.020Z,15.52
2023-01-17T12:05:15.419Z,17.15
2023-01-17T12:07:49.792Z,15.38
2023-01-17T12:10:39.895Z,13.13
2023-01-17T12:13:48.809Z,12.98
2023-01-17T12:16:38.796Z,14.25
2023-01-17T12:19:32.468Z,15.48
2023-01-17T12:22:05.764Z,14.93
2023-01-17T12:24:58.415Z,14.02
2023-01-17T12:27:34.563Z,12.75
2023-01-17T12:30:22.943Z,12.40
2023-01-17T12:33:07.674Z,15.23
2023-01-17T12:35:53.014Z,16.30
2023-01-17T12:38:33.264Z,17.95
2023-01-17T12:41:32.809Z,14.25
2023-01-17T12:44:00.824Z,14.70
2023-01-17T12:46:33.851Z,15.30
2023-01-17T12:49:33.256Z,13.27
2023-01-17T12:52:08.914Z,15.98
2023-01-17T12:54:42.641Z,17.90
2023-01-17T12:57:18.988Z,16.65
2023-01-17T12:59:58.195Z,16.38
2023-01-17T13:02:47.706Z,14.70
2023-01-17T13:05:24.328Z,15.48
2023-01-17T13:08:00.192Z,15.65
2023-01-17T13:10:38.873Z,14.65
2023-01-17T13:13:20.247Z,14.68
2023-01-17T13:15:49.694Z,14.73
2023-01-17T13:18:25.895Z,17.20
2023-01-17T13:21:10.558Z,18.55
2023-01-17T13:24:15.127Z,25.98
2023-01-17T13:26:48.951Z,22.50
2023-01-17T13:29:41.071Z,16.20
2023-01-17T13:32:17.725Z,18.25
2023-01-17T13:35:03.777Z,24.15
2023-01-17T13:37:40.350Z,21.15
2023-01-17T13:40:22.687Z,20.23
2023-01-17T13:42:58.554Z,23.08
2023-01-17T13:45:30.400Z,23.35
2023-01-17T13:48:40.898Z,19.67
2023-01-17T13:51:11.664Z,18.00
2023-01-17T13:53:39.060Z,20.15
2023-01-17T13:56:28.788Z,20.60
2023-01-17T13:59:05.012Z,15.90
2023-01-17T14:01:32.141Z,16.77
2023-01-17T14:04:03.583Z,14.48
2023-01-17T14:06:55.467Z,15.07
2023-01-17T14:09:41.625Z,31.15
2023-01-17T14:12:11.561Z,13.65
2023-01-17T14:14:44.217Z,14.48
2023-01-17T14:17:26.629Z,15.02
2023-01-17T14:20:42.834Z,16.20
2023-01-17T14:23:31.216Z,17.17
2023-01-17T14:26:12.105Z,20.40
2023-01-17T14:28:39.443Z,20.13
2023-01-17T14:31:10.759Z,19.20
2023-01-17T14:33:40.785Z,20.33
2023-01-17T14:36:31.761Z,19.30
2023-01-17T14:38:58.959Z,20.83
2023-01-17T14:41:28.910Z,19.08
2023-01-17T14:43:59.677Z,22.45
2023-01-17T14:46:36.058Z,19.85
2023-01-17T14:49:06.061Z,18.67
2023-01-17T14:51:38.481Z,21.88
2023-01-17T14:54:21.076Z,20.92
2023-01-17T14:56:48.461Z,19.38
2023-01-17T14:59:19.185Z,19.65
2023-01-17T15:02:07.216Z,17.83
2023-01-17T15:04:39.488Z,18.75
2023-01-17T15:07:12.302Z,20.83
2023-01-17T15:09:43.213Z,24.40
2023-01-17T15:12:15.934Z,21.27
2023-01-17T15:14:45.794Z,21.23
2023-01-17T15:17:20.337Z,22.52
2023-01-17T15:20:01.849Z,22.20
2023-01-17T15:22:30.238Z,23.65
2023-01-17T15:24:59.012Z,23.55
2023-01-17T15:27:26.857Z,24.48
2023-01-17T15:29:57.414Z,24.10
2023-01-17T15:32:31.445Z,27.65
2023-01-17T15:35:01.837Z,25.95
2023-01-17T15:37:30.951Z,26.98
2023-01-17T15:40:20.789Z,24.83
2023-01-17T15:42:56.726Z,23.38
2023-01-17T15:45:31.245Z,28.55
2023-01-17T15:48:18.952Z,26.50
2023-01-17T15:50:47.815Z,24.88
2023-01-17T15:53:37.667Z,22.90
2023-01-17T15:56:27.303Z,23.65
2023-01-17T15:58:54.791Z,25.17
2023-01-17T16:01:28.802Z,58.85
2023-01-17T16:03:56.366Z,37.55
2023-01-17T16:06:45.342Z,56.03
2023-01-17T16:09:23.802Z,44.20
2023-01-17T16:11:51.024Z,33.35
2023-01-17T16:14:18.700Z,77.07
2023-01-17T16:16:53.409Z,55.38
2023-01-17T16:19:21.597Z,55.40
2023-01-17T16:21:48.957Z,76.80
2023-01-17T16:24:16.782Z,54.47
2023-01-17T16:26:43.892Z,43.55
2023-01-17T16:29:11.616Z,44.75
2023-01-17T16:31:38.642Z,35.95
2023-01-17T16:34:14.018Z,36.60
2023-01-17T16:36:41.326Z,38.63
2023-01-17T16:39:12.616Z,34.83
2023-01-17T16:41:39.746Z,34.95
2023-01-17T16:44:07.793Z,36.30
2023-01-17T16:46:38.455Z,37.85
2023-01-17T16:49:05.926Z,31.08
2023-01-17T16:51:34.431Z,30.80
2023-01-17T16:54:02.169Z,34.55
2023-01-17T16:56:29.332Z,35.88
2023-01-17T16:58:56.762Z,33.35
2023-01-17T17:01:25.342Z,36.85
2023-01-17T17:03:52.920Z,31.40
2023-01-17T17:06:20.118Z,30.80
2023-01-17T17:08:47.930Z,35.25
2023-01-17T17:11:17.705Z,31.13
2023-01-17T17:13:47.867Z,30.75
2023-01-17T17:16:26.443Z,26.02
2023-01-17T17:19:05.556Z,29.75
2023-01-17T17:21:34.260Z,26.83
2023-01-17T17:24:02.374Z,28.98
2023-01-17T17:26:37.003Z,28.13
2023-01-17T17:29:06.753Z,31.90
2023-01-17T17:31:33.892Z,31.02
2023-01-17T17:34:02.300Z,29.80
2023-01-17T17:36:30.253Z,26.83
2023-01-17T17:38:58.211Z,25.67
2023-01-17T17:41:29.680Z,30.77
2023-01-17T17:43:57.936Z,32.42
2023-01-17T17:46:27.264Z,30.80
2023-01-17T17:48:56.919Z,32.70
2023-01-17T17:51:34.110Z,33.83
2023-01-17T17:54:03.862Z,33.88
2023-01-17T17:56:32.489Z,31.75
2023-01-17T17:59:01.256Z,30.13
2023-01-17T18:01:28.499Z,33.70
2023-01-17T18:04:00.660Z,33.53
2023-01-17T18:06:27.838Z,33.92
2023-01-17T18:08:55.237Z,34.42
2023-01-17T18:11:26.059Z,36.63
2023-01-17T18:13:55.721Z,32.72
2023-01-17T18:16:33.316Z,33.38
2023-01-17T18:19:17.683Z,33.38
2023-01-17T18:21:45.517Z,29.27
2023-01-17T18:24:18.457Z,29.98
2023-01-17T18:26:54.487Z,30.10
2023-01-17T18:29:23.045Z,31.75
2023-01-17T18:31:51.702Z,29.85
2023-01-17T18:34:24.453Z,31.35
2023-01-17T18:36:52.397Z,30.90
2023-01-17T18:39:27.989Z,32.85
2023-01-17T18:41:55.751Z,33.95
2023-01-17T18:44:23.162Z,30.60
2023-01-17T18:46:52.938Z,30.33
2023-01-17T18:49:20.194Z,30.02
2023-01-17T18:51:50.922Z,32.33
2023-01-17T18:54:20.369Z,38.53
2023-01-17T18:56:48.207Z,36.25
2023-01-17T18:59:18.432Z,36.67
2023-01-17T19:01:46.542Z,39.35
2023-01-17T19:04:15.920Z,41.40
2023-01-17T19:06:46.052Z,35.83
2023-01-17T19:09:15.262Z,35.47
2023-01-17T19:11:44.873Z,35.85
2023-01-17T19:14:12.589Z,40.17
2023-01-17T19:16:41.333Z,38.83
2023-01-17T19:19:11.951Z,42.35
2023-01-17T19:21:39.612Z,38.45
2023-01-17T19:24:07.053Z,38.45
2023-01-17T19:26:34.408Z,37.30
2023-01-17T19:29:03.828Z,35.97
2023-01-17T19:31:32.717Z,37.83
2023-01-17T19:34:00.068Z,34.10
2023-01-17T19:36:31.430Z,36.72
2023-01-17T19:39:04.986Z,39.65
2023-01-17T19:41:35.323Z,39.22
2023-01-17T19:44:06.545Z,35.72
2023-01-17T19:46:35.054Z,37.08
2023-01-17T21:22:50.463Z,29.23
2023-01-17T21:25:17.742Z,36.13
2023-01-17T21:27:48.245Z,34.88
2023-01-17T21:30:15.536Z,38.83
2023-01-17T21:32:43.012Z,37.88
2023-01-17T21:35:10.089Z,40.10
2023-01-17T21:37:38.216Z,41.38
2023-01-17T21:40:05.777Z,39.13
2023-01-17T21:42:33.112Z,38.72
2023-01-17T21:45:00.213Z,37.25
2023-01-17T21:47:27.586Z,42.65
2023-01-17T21:49:54.605Z,39.65
2023-01-17T21:52:22.029Z,41.42
2023-01-17T21:55:07.456Z,37.70
2023-01-17T21:57:53.298Z,41.03
2023-01-17T22:00:20.593Z,38.38
2023-01-17T22:02:48.589Z,39.03
2023-01-17T22:05:19.579Z,42.60
2023-01-17T22:08:05.812Z,41.63
2023-01-17T22:10:33.221Z,37.47
2023-01-17T22:13:00.761Z,38.22
2023-01-17T22:15:27.929Z,39.33
2023-01-17T22:17:55.817Z,43.45
2023-01-17T22:20:23.047Z,43.92
2023-01-17T22:22:50.445Z,41.90
2023-01-17T22:25:17.881Z,42.75
2023-01-17T22:27:45.430Z,42.90
2023-01-17T22:30:13.209Z,40.28
2023-01-17T22:32:40.738Z,41.63
2023-01-17T22:35:08.449Z,46.53
2023-01-17T22:37:35.885Z,43.47
2023-01-17T22:40:04.924Z,42.75
2023-01-17T22:42:35.146Z,39.67
2023-01-17T22:45:02.684Z,47.05
2023-01-17T22:47:30.140Z,52.08
2023-01-17T22:49:57.188Z,54.10
2023-01-17T22:52:24.675Z,53.60
2023-01-17T22:54:51.933Z,51.83
2023-01-17T22:57:19.300Z,48.83
2023-01-17T22:59:46.383Z,50.00
2023-01-17T23:02:15.713Z,47.38
2023-01-17T23:04:43.599Z,46.63
2023-01-17T23:07:11.453Z,43.90
2023-01-17T23:09:38.537Z,45.13
2023-01-17T23:12:06.223Z,46.60
2023-01-17T23:14:53.952Z,46.92
2023-01-17T23:17:42.667Z,46.33
2023-01-17T23:20:10.928Z,44.97
2023-01-17T23:22:38.775Z,47.08
2023-01-17T23:25:12.322Z,51.30
2023-01-17T23:28:03.980Z,52.35
2023-01-17T23:30:40.888Z,52.03
2023-01-17T23:33:11.883Z,50.25
2023-01-17T23:35:42.313Z,48.10
2023-01-17T23:38:26.057Z,47.22
2023-01-17T23:41:12.533Z,43.80
2023-01-17T23:43:39.920Z,50.67
2023-01-17T23:46:11.897Z,47.05
2023-01-17T23:48:39.368Z,51.38
2023-01-17T23:51:09.218Z,44.97
2023-01-17T23:53:40.647Z,45.00
2023-01-17T23:56:18.606Z,54.10
2023-01-17T23:58:46.127Z,47.00
